sensor_id;sensor_type;location;lat;lon;timestamp;pressure;altitude;pressure_sealevel;temperature;humidity
31681;BME280;18281;51.364;9.566;2023-02-10T00:00:44;101860.53;;;-3.12;100.00
31681;BME280;18281;51.364;9.566;2023-02-10T00:03:09;101851.25;;;-3.08;100.00
31681;BME280;18281;51.364;9.566;2023-02-10T00:05:35;101854.09;;;-2.99;100.00
31681;BME280;18281;51.364;9.566;2023-02-10T00:08:00;101856.03;;;-2.90;100.00
31681;BME280;18281;51.364;9.566;2023-02-10T00:10:25;101863.56;;;-2.96;100.00
31681;BME280;18281;51.364;9.566;2023-02-10T00:12:51;101858.28;;;-3.01;100.00
31681;BME280;18281;51.364;9.566;2023-02-10T00:15:16;101862.75;;;-2.95;100.00
31681;BME280;18281;51.364;9.566;2023-02-10T00:17:41;101860.16;;;-2.95;100.00
31681;BME280;18281;51.364;9.566;2023-02-10T00:20:07;101862.78;;;-2.94;100.00
31681;BME280;18281;51.364;9.566;2023-02-10T00:22:33;101874.22;;;-2.84;100.00
31681;BME280;18281;51.364;9.566;2023-02-10T00:24:59;101869.88;;;-2.87;100.00
31681;BME280;18281;51.364;9.566;2023-02-10T00:27:24;101871.72;;;-2.83;100.00
31681;BME280;18281;51.364;9.566;2023-02-10T00:29:51;101881.72;;;-2.92;100.00
31681;BME280;18281;51.364;9.566;2023-02-10T00:32:17;101884.25;;;-2.93;100.00
31681;BME280;18281;51.364;9.566;2023-02-10T00:34:44;101885.34;;;-2.85;100.00
31681;BME280;18281;51.364;9.566;2023-02-10T00:37:10;101888.97;;;-2.78;100.00
31681;BME280;18281;51.364;9.566;2023-02-10T00:39:35;101876.31;;;-2.72;100.00
31681;BME280;18281;51.364;9.566;2023-02-10T00:42:01;101878.94;;;-2.98;100.00
31681;BME280;18281;51.364;9.566;2023-02-10T00:44:26;101884.19;;;-2.95;100.00
31681;BME280;18281;51.364;9.566;2023-02-10T00:46:51;101892.00;;;-2.92;100.00
31681;BME280;18281;51.364;9.566;2023-02-10T00:49:17;101893.00;;;-2.87;100.00
31681;BME280;18281;51.364;9.566;2023-02-10T00:51:42;101889.63;;;-2.86;100.00
31681;BME280;18281;51.364;9.566;2023-02-10T00:54:09;101891.78;;;-2.98;100.00
31681;BME280;18281;51.364;9.566;2023-02-10T00:56:35;101899.28;;;-3.06;100.00
31681;BME280;18281;51.364;9.566;2023-02-10T00:59:01;101892.47;;;-3.04;100.00
31681;BME280;18281;51.364;9.566;2023-02-10T01:01:26;101893.63;;;-2.94;100.00
31681;BME280;18281;51.364;9.566;2023-02-10T01:03:51;101900.22;;;-3.02;100.00
31681;BME280;18281;51.364;9.566;2023-02-10T01:06:17;101910.38;;;-3.07;100.00
31681;BME280;18281;51.364;9.566;2023-02-10T01:08:42;101907.03;;;-3.04;100.00
31681;BME280;18281;51.364;9.566;2023-02-10T01:11:10;101901.00;;;-3.05;100.00
31681;BME280;18281;51.364;9.566;2023-02-10T01:13:36;101900.06;;;-3.08;100.00
31681;BME280;18281;51.364;9.566;2023-02-10T01:16:07;101900.16;;;-3.05;100.00
31681;BME280;18281;51.364;9.566;2023-02-10T01:18:38;101918.13;;;-3.05;100.00
31681;BME280;18281;51.364;9.566;2023-02-10T01:21:14;101906.34;;;-2.99;100.00
31681;BME280;18281;51.364;9.566;2023-02-10T01:23:40;101918.94;;;-3.06;100.00
31681;BME280;18281;51.364;9.566;2023-02-10T01:26:06;101915.31;;;-2.86;100.00
31681;BME280;18281;51.364;9.566;2023-02-10T01:28:32;101928.03;;;-2.90;100.00
31681;BME280;18281;51.364;9.566;2023-02-10T01:30:57;101927.38;;;-2.83;100.00
31681;BME280;18281;51.364;9.566;2023-02-10T01:33:23;101917.00;;;-2.86;100.00
31681;BME280;18281;51.364;9.566;2023-02-10T01:35:48;101929.25;;;-2.79;100.00
31681;BME280;18281;51.364;9.566;2023-02-10T01:38:13;101916.59;;;-3.00;100.00
31681;BME280;18281;51.364;9.566;2023-02-10T01:40:39;101914.88;;;-3.00;100.00
31681;BME280;18281;51.364;9.566;2023-02-10T01:43:13;101924.72;;;-2.86;100.00
31681;BME280;18281;51.364;9.566;2023-02-10T01:45:38;101919.44;;;-2.91;100.00
31681;BME280;18281;51.364;9.566;2023-02-10T01:48:05;101921.28;;;-2.87;100.00
31681;BME280;18281;51.364;9.566;2023-02-10T01:50:42;101913.31;;;-2.94;100.00
31681;BME280;18281;51.364;9.566;2023-02-10T01:53:12;101922.84;;;-2.92;100.00
31681;BME280;18281;51.364;9.566;2023-02-10T01:55:39;101919.00;;;-2.77;100.00
31681;BME280;18281;51.364;9.566;2023-02-10T01:58:09;101917.09;;;-2.83;100.00
31681;BME280;18281;51.364;9.566;2023-02-10T02:00:35;101920.78;;;-2.75;100.00
31681;BME280;18281;51.364;9.566;2023-02-10T02:03:02;101911.56;;;-2.68;100.00
31681;BME280;18281;51.364;9.566;2023-02-10T02:05:34;101923.03;;;-2.86;100.00
31681;BME280;18281;51.364;9.566;2023-02-10T02:08:06;101921.28;;;-2.87;100.00
31681;BME280;18281;51.364;9.566;2023-02-10T02:10:48;101920.38;;;-2.87;100.00
31681;BME280;18281;51.364;9.566;2023-02-10T02:16:19;101925.19;;;-2.71;100.00
31681;BME280;18281;51.364;9.566;2023-02-10T02:19:24;101923.13;;;-2.83;100.00
31681;BME280;18281;51.364;9.566;2023-02-10T02:22:01;101913.47;;;-2.90;100.00
31681;BME280;18281;51.364;9.566;2023-02-10T02:24:59;101909.25;;;-2.88;100.00
31681;BME280;18281;51.364;9.566;2023-02-10T02:27:45;101915.94;;;-2.93;100.00
31681;BME280;18281;51.364;9.566;2023-02-10T02:33:55;101908.72;;;-2.77;100.00
31681;BME280;18281;51.364;9.566;2023-02-10T02:36:27;101904.38;;;-2.78;100.00
31681;BME280;18281;51.364;9.566;2023-02-10T02:39:00;101909.34;;;-2.85;100.00
31681;BME280;18281;51.364;9.566;2023-02-10T02:41:26;101904.59;;;-2.72;100.00
31681;BME280;18281;51.364;9.566;2023-02-10T02:43:53;101911.28;;;-2.77;100.00
31681;BME280;18281;51.364;9.566;2023-02-10T02:49:08;101911.13;;;-2.82;100.00
31681;BME280;18281;51.364;9.566;2023-02-10T02:51:47;101912.22;;;-2.74;100.00
31681;BME280;18281;51.364;9.566;2023-02-10T02:54:45;101911.28;;;-2.77;100.00
31681;BME280;18281;51.364;9.566;2023-02-10T02:59:50;101907.88;;;-2.76;100.00
31681;BME280;18281;51.364;9.566;2023-02-10T03:02:18;101911.28;;;-2.77;100.00
31681;BME280;18281;51.364;9.566;2023-02-10T03:04:46;101911.28;;;-2.77;100.00
31681;BME280;18281;51.364;9.566;2023-02-10T03:07:13;101915.13;;;-2.63;100.00
31681;BME280;18281;51.364;9.566;2023-02-10T03:09:39;101916.78;;;-2.65;100.00
31681;BME280;18281;51.364;9.566;2023-02-10T03:12:06;101917.56;;;-2.68;100.00
31681;BME280;18281;51.364;9.566;2023-02-10T03:14:31;101921.13;;;-2.64;100.00
31681;BME280;18281;51.364;9.566;2023-02-10T03:16:57;101930.56;;;-2.63;100.00
31681;BME280;18281;51.364;9.566;2023-02-10T03:19:22;101931.00;;;-2.76;100.00
31681;BME280;18281;51.364;9.566;2023-02-10T03:21:48;101933.84;;;-2.67;100.00
31681;BME280;18281;51.364;9.566;2023-02-10T03:24:14;101926.28;;;-2.62;100.00
31681;BME280;18281;51.364;9.566;2023-02-10T03:26:39;101925.19;;;-2.71;100.00
31681;BME280;18281;51.364;9.566;2023-02-10T03:29:06;101922.72;;;-2.68;100.00
31681;BME280;18281;51.364;9.566;2023-02-10T03:31:31;101936.50;;;-2.66;100.00
31681;BME280;18281;51.364;9.566;2023-02-10T03:33:57;101930.44;;;-2.68;100.00
31681;BME280;18281;51.364;9.566;2023-02-10T03:36:22;101942.59;;;-2.62;100.00
31681;BME280;18281;51.364;9.566;2023-02-10T03:38:48;101951.03;;;-2.66;100.00
31681;BME280;18281;51.364;9.566;2023-02-10T03:41:13;101947.72;;;-2.62;100.00
31681;BME280;18281;51.364;9.566;2023-02-10T03:43:39;101944.34;;;-2.61;100.00
31681;BME280;18281;51.364;9.566;2023-02-10T03:46:06;101945.41;;;-2.54;100.00
31681;BME280;18281;51.364;9.566;2023-02-10T03:48:31;101943.81;;;-2.51;100.00
31681;BME280;18281;51.364;9.566;2023-02-10T03:50:58;101940.94;;;-2.60;100.00
31681;BME280;18281;51.364;9.566;2023-02-10T03:53:24;101932.22;;;-2.65;100.00
31681;BME280;18281;51.364;9.566;2023-02-10T03:55:50;101939.25;;;-2.59;100.00
31681;BME280;18281;51.364;9.566;2023-02-10T03:58:15;101933.47;;;-2.52;100.00
31681;BME280;18281;51.364;9.566;2023-02-10T04:00:41;101932.22;;;-2.65;100.00
31681;BME280;18281;51.364;9.566;2023-02-10T04:03:06;101932.13;;;-2.68;100.00
31681;BME280;18281;51.364;9.566;2023-02-10T04:05:31;101930.97;;;-2.78;100.00
31681;BME280;18281;51.364;9.566;2023-02-10T04:07:57;101922.78;;;-2.65;100.00
31681;BME280;18281;51.364;9.566;2023-02-10T04:10:22;101924.59;;;-2.62;100.00
31681;BME280;18281;51.364;9.566;2023-02-10T04:12:48;101928.91;;;-2.61;100.00
31681;BME280;18281;51.364;9.566;2023-02-10T04:15:14;101928.72;;;-2.67;100.00
31681;BME280;18281;51.364;9.566;2023-02-10T04:17:39;101927.28;;;-2.59;100.00
31681;BME280;18281;51.364;9.566;2023-02-10T04:20:05;101930.03;;;-2.51;100.00
31681;BME280;18281;51.364;9.566;2023-02-10T04:22:30;101930.94;;;-2.51;100.00
31681;BME280;18281;51.364;9.566;2023-02-10T04:24:56;101934.25;;;-2.55;100.00
31681;BME280;18281;51.364;9.566;2023-02-10T04:27:22;101941.19;;;-2.52;100.00
31681;BME280;18281;51.364;9.566;2023-02-10T04:29:47;101943.56;;;-2.58;100.00
31681;BME280;18281;51.364;9.566;2023-02-10T04:32:12;101948.09;;;-2.50;100.00
31681;BME280;18281;51.364;9.566;2023-02-10T04:34:38;101954.72;;;-2.58;100.00
31681;BME280;18281;51.364;9.566;2023-02-10T04:37:03;101949.59;;;-2.56;100.00
31681;BME280;18281;51.364;9.566;2023-02-10T04:39:28;101957.53;;;-2.50;100.00
31681;BME280;18281;51.364;9.566;2023-02-10T04:41:54;101957.69;;;-2.45;100.00
31681;BME280;18281;51.364;9.566;2023-02-10T04:44:20;101958.38;;;-2.50;100.00
31681;BME280;18281;51.364;9.566;2023-02-10T04:46:45;101955.00;;;-2.49;100.00
31681;BME280;18281;51.364;9.566;2023-02-10T04:49:11;101958.50;;;-2.46;100.00
31681;BME280;18281;51.364;9.566;2023-02-10T04:51:36;101963.72;;;-2.43;100.00
31681;BME280;18281;51.364;9.566;2023-02-10T04:54:01;101963.81;;;-2.40;100.00
31681;BME280;18281;51.364;9.566;2023-02-10T04:56:26;101955.19;;;-2.42;100.00
31681;BME280;18281;51.364;9.566;2023-02-10T04:58:52;101958.28;;;-2.53;100.00
31681;BME280;18281;51.364;9.566;2023-02-10T05:01:17;101957.16;;;-2.62;100.00
31681;BME280;18281;51.364;9.566;2023-02-10T05:03:43;101958.16;;;-2.57;100.00
31681;BME280;18281;51.364;9.566;2023-02-10T05:06:10;101953.88;;;-2.57;100.00
31681;BME280;18281;51.364;9.566;2023-02-10T05:08:36;101950.63;;;-2.51;100.00
31681;BME280;18281;51.364;9.566;2023-02-10T05:11:06;101957.53;;;-2.50;100.00
31681;BME280;18281;51.364;9.566;2023-02-10T05:13:33;101952.34;;;-2.52;100.00
31681;BME280;18281;51.364;9.566;2023-02-10T05:15:58;101958.38;;;-2.50;100.00
31681;BME280;18281;51.364;9.566;2023-02-10T05:18:24;101957.88;;;-2.67;100.00
31681;BME280;18281;51.364;9.566;2023-02-10T05:20:49;101957.19;;;-2.61;100.00
31681;BME280;18281;51.364;9.566;2023-02-10T05:23:15;101954.72;;;-2.58;100.00
31681;BME280;18281;51.364;9.566;2023-02-10T05:25:40;101951.34;;;-2.55;100.00
31681;BME280;18281;51.364;9.566;2023-02-10T05:28:05;101949.53;;;-2.59;100.00
31681;BME280;18281;51.364;9.566;2023-02-10T05:30:37;101950.75;;;-2.48;100.00
31681;BME280;18281;51.364;9.566;2023-02-10T05:33:02;101950.25;;;-2.63;100.00
31681;BME280;18281;51.364;9.566;2023-02-10T05:35:28;101946.81;;;-2.64;100.00
31681;BME280;18281;51.364;9.566;2023-02-10T05:37:53;101949.28;;;-2.67;100.00
31681;BME280;18281;51.364;9.566;2023-02-10T05:40:18;101949.75;;;-2.52;100.00
31681;BME280;18281;51.364;9.566;2023-02-10T05:42:44;101945.28;;;-2.59;100.00
31681;BME280;18281;51.364;9.566;2023-02-10T05:45:09;101949.41;;;-2.64;100.00
31681;BME280;18281;51.364;9.566;2023-02-10T05:47:34;101959.94;;;-2.84;100.00
31681;BME280;18281;51.364;9.566;2023-02-10T05:50:00;101953.19;;;-2.80;100.00
31681;BME280;18281;51.364;9.566;2023-02-10T05:52:25;101953.28;;;-2.77;100.00
31681;BME280;18281;51.364;9.566;2023-02-10T05:54:50;101959.81;;;-2.88;100.00
31681;BME280;18281;51.364;9.566;2023-02-10T05:57:15;101968.47;;;-2.85;100.00
31681;BME280;18281;51.364;9.566;2023-02-10T05:59:41;101965.84;;;-3.13;100.00
31681;BME280;18281;51.364;9.566;2023-02-10T06:02:07;101969.63;;;-3.02;100.00
31681;BME280;18281;51.364;9.566;2023-02-10T06:04:32;101969.91;;;-2.93;100.00
31681;BME280;18281;51.364;9.566;2023-02-10T06:06:58;101975.22;;;-2.88;100.00
31681;BME280;18281;51.364;9.566;2023-02-10T06:09:23;101980.41;;;-2.87;100.00
31681;BME280;18281;51.364;9.566;2023-02-10T06:11:52;101976.84;;;-2.90;100.00
31681;BME280;18281;51.364;9.566;2023-02-10T06:14:18;101980.78;;;-3.02;100.00
31681;BME280;18281;51.364;9.566;2023-02-10T06:16:43;101983.19;;;-3.06;100.00
31681;BME280;18281;51.364;9.566;2023-02-10T06:19:09;101993.16;;;-3.41;100.00
31681;BME280;18281;51.364;9.566;2023-02-10T06:21:34;102000.81;;;-3.43;100.00
31681;BME280;18281;51.364;9.566;2023-02-10T06:24:00;102008.25;;;-3.51;100.00
31681;BME280;18281;51.364;9.566;2023-02-10T06:26:25;102016.78;;;-3.52;100.00
31681;BME280;18281;51.364;9.566;2023-02-10T06:28:53;102024.09;;;-3.38;100.00
31681;BME280;18281;51.364;9.566;2023-02-10T06:31:18;102023.38;;;-3.34;100.00
31681;BME280;18281;51.364;9.566;2023-02-10T06:33:44;102019.63;;;-3.44;100.00
31681;BME280;18281;51.364;9.566;2023-02-10T06:36:09;102017.88;;;-3.69;100.00
31681;BME280;18281;51.364;9.566;2023-02-10T06:38:36;102031.22;;;-3.55;100.00
31681;BME280;18281;51.364;9.566;2023-02-10T06:41:02;102036.56;;;-3.73;100.00
31681;BME280;18281;51.364;9.566;2023-02-10T06:43:27;102034.69;;;-3.53;100.00
31681;BME280;18281;51.364;9.566;2023-02-10T06:45:53;102029.81;;;-3.71;100.00
31681;BME280;18281;51.364;9.566;2023-02-10T06:48:19;102031.53;;;-3.70;100.00
31681;BME280;18281;51.364;9.566;2023-02-10T06:50:44;102035.88;;;-3.92;100.00
31681;BME280;18281;51.364;9.566;2023-02-10T06:53:09;102037.22;;;-3.79;100.00
31681;BME280;18281;51.364;9.566;2023-02-10T06:55:35;102042.31;;;-4.03;100.00
31681;BME280;18281;51.364;9.566;2023-02-10T06:58:01;102042.97;;;-4.09;100.00
31681;BME280;18281;51.364;9.566;2023-02-10T07:00:27;102044.63;;;-4.09;100.00
31681;BME280;18281;51.364;9.566;2023-02-10T07:02:53;102039.44;;;-3.88;100.00
31681;BME280;18281;51.364;9.566;2023-02-10T07:05:19;102041.63;;;-3.75;100.00
31681;BME280;18281;51.364;9.566;2023-02-10T07:07:44;102050.59;;;-4.10;100.00
31681;BME280;18281;51.364;9.566;2023-02-10T07:10:10;102056.00;;;-4.25;100.00
31681;BME280;18281;51.364;9.566;2023-02-10T07:12:36;102059.13;;;-4.11;100.00
31681;BME280;18281;51.364;9.566;2023-02-10T07:15:02;102057.25;;;-3.93;100.00
31681;BME280;18281;51.364;9.566;2023-02-10T07:17:27;102062.69;;;-3.84;100.00
31681;BME280;18281;51.364;9.566;2023-02-10T07:19:53;102067.63;;;-4.12;100.00
31681;BME280;18281;51.364;9.566;2023-02-10T07:22:18;102070.34;;;-4.30;100.00
31681;BME280;18281;51.364;9.566;2023-02-10T07:24:43;102073.44;;;-4.17;100.00
31681;BME280;18281;51.364;9.566;2023-02-10T07:27:09;102072.91;;;-4.08;100.00
31681;BME280;18281;51.364;9.566;2023-02-10T07:29:34;102079.03;;;-4.04;100.00
31681;BME280;18281;51.364;9.566;2023-02-10T07:32:00;102079.94;;;-4.26;100.00
31681;BME280;18281;51.364;9.566;2023-02-10T07:34:26;102084.88;;;-4.08;100.00
31681;BME280;18281;51.364;9.566;2023-02-10T07:36:51;102076.13;;;-4.13;100.00
31681;BME280;18281;51.364;9.566;2023-02-10T07:39:28;102087.28;;;-4.13;100.00
31681;BME280;18281;51.364;9.566;2023-02-10T07:41:53;102083.72;;;-3.94;100.00
31681;BME280;18281;51.364;9.566;2023-02-10T07:44:19;102090.13;;;-4.05;100.00
31681;BME280;18281;51.364;9.566;2023-02-10T07:46:46;102090.81;;;-4.09;100.00
31681;BME280;18281;51.364;9.566;2023-02-10T07:49:12;102092.81;;;-3.33;100.00
31681;BME280;18281;51.364;9.566;2023-02-10T07:51:37;102090.94;;;-2.87;100.00
31681;BME280;18281;51.364;9.566;2023-02-10T07:54:03;102094.69;;;-3.03;100.00
31681;BME280;18281;51.364;9.566;2023-02-10T07:56:28;102082.25;;;-3.16;100.00
31681;BME280;18281;51.364;9.566;2023-02-10T07:58:54;102084.31;;;-3.30;100.00
31681;BME280;18281;51.364;9.566;2023-02-10T08:01:19;102089.91;;;-3.42;100.00
31681;BME280;18281;51.364;9.566;2023-02-10T08:03:44;102094.53;;;-3.56;100.00
31681;BME280;18281;51.364;9.566;2023-02-10T08:06:10;102084.59;;;-3.46;100.00
31681;BME280;18281;51.364;9.566;2023-02-10T08:08:35;102088.84;;;-3.71;100.00
31681;BME280;18281;51.364;9.566;2023-02-10T08:11:05;102089.09;;;-3.63;100.00
31681;BME280;18281;51.364;9.566;2023-02-10T08:13:32;102100.75;;;-3.49;100.00
31681;BME280;18281;51.364;9.566;2023-02-10T08:15:57;102099.53;;;-3.36;100.00
31681;BME280;18281;51.364;9.566;2023-02-10T08:18:23;102093.66;;;-3.08;100.00
31681;BME280;18281;51.364;9.566;2023-02-10T08:20:48;102093.47;;;-2.88;100.00
31681;BME280;18281;51.364;9.566;2023-02-10T08:23:16;102091.63;;;-2.92;100.00
31681;BME280;18281;51.364;9.566;2023-02-10T08:25:42;102090.63;;;-2.96;100.00
31681;BME280;18281;51.364;9.566;2023-02-10T08:28:07;102096.91;;;-2.88;100.00
31681;BME280;18281;51.364;9.566;2023-02-10T08:30:32;102094.13;;;-2.68;100.00
31681;BME280;18281;51.364;9.566;2023-02-10T08:32:58;102087.50;;;-2.61;100.00
31681;BME280;18281;51.364;9.566;2023-02-10T08:35:24;102096.88;;;-2.36;100.00
31681;BME280;18281;51.364;9.566;2023-02-10T08:37:49;102091.16;;;-2.26;100.00
31681;BME280;18281;51.364;9.566;2023-02-10T08:40:15;102094.81;;;-2.19;100.00
31681;BME280;18281;51.364;9.566;2023-02-10T08:42:40;102094.47;;;-2.03;100.00
31681;BME280;18281;51.364;9.566;2023-02-10T08:45:06;102092.31;;;-1.89;100.00
31681;BME280;18281;51.364;9.566;2023-02-10T08:47:32;102090.81;;;-1.81;100.00
31681;BME280;18281;51.364;9.566;2023-02-10T08:49:58;102092.56;;;-1.79;100.00
31681;BME280;18281;51.364;9.566;2023-02-10T08:52:23;102099.63;;;-1.72;100.00
31681;BME280;18281;51.364;9.566;2023-02-10T08:54:49;102098.63;;;-1.77;100.00
31681;BME280;18281;51.364;9.566;2023-02-10T08:57:14;102097.88;;;-1.73;100.00
31681;BME280;18281;51.364;9.566;2023-02-10T08:59:39;102101.66;;;-1.62;100.00
31681;BME280;18281;51.364;9.566;2023-02-10T09:02:05;102100.41;;;-1.75;100.00
31681;BME280;18281;51.364;9.566;2023-02-10T09:04:31;102108.81;;;-1.82;100.00
31681;BME280;18281;51.364;9.566;2023-02-10T09:06:57;102100.25;;;-1.51;100.00
31681;BME280;18281;51.364;9.566;2023-02-10T09:09:23;102109.00;;;-1.45;100.00
31681;BME280;18281;51.364;9.566;2023-02-10T09:11:51;102098.88;;;-1.39;100.00
31681;BME280;18281;51.364;9.566;2023-02-10T09:14:17;102110.75;;;-1.44;100.00
31681;BME280;18281;51.364;9.566;2023-02-10T09:16:42;102111.44;;;-1.50;100.00
31681;BME280;18281;51.364;9.566;2023-02-10T09:19:08;102106.88;;;-0.63;100.00
31681;BME280;18281;51.364;9.566;2023-02-10T09:21:33;102113.78;;;0.14;100.00
31681;BME280;18281;51.364;9.566;2023-02-10T09:23:59;102112.88;;;-0.27;100.00
31681;BME280;18281;51.364;9.566;2023-02-10T09:26:24;102104.53;;;-0.54;100.00
31681;BME280;18281;51.364;9.566;2023-02-10T09:28:49;102098.72;;;-0.78;100.00
31681;BME280;18281;51.364;9.566;2023-02-10T09:31:15;102094.09;;;-0.92;100.00
31681;BME280;18281;51.364;9.566;2023-02-10T09:33:41;102094.72;;;-1.02;100.00
31681;BME280;18281;51.364;9.566;2023-02-10T09:36:10;102099.72;;;-1.07;100.00
31681;BME280;18281;51.364;9.566;2023-02-10T09:38:37;102092.13;;;-1.02;100.00
31681;BME280;18281;51.364;9.566;2023-02-10T09:48:44;102100.03;;;-0.61;100.00
31681;BME280;18281;51.364;9.566;2023-02-10T09:51:40;102103.34;;;-0.67;100.00
31681;BME280;18281;51.364;9.566;2023-02-10T09:54:11;102112.28;;;-0.87;100.00
31681;BME280;18281;51.364;9.566;2023-02-10T09:56:37;102108.56;;;-0.64;100.00
31681;BME280;18281;51.364;9.566;2023-02-10T09:59:05;102102.94;;;-0.49;100.00
31681;BME280;18281;51.364;9.566;2023-02-10T10:01:37;102108.22;;;-0.42;100.00
31681;BME280;18281;51.364;9.566;2023-02-10T10:04:08;102103.44;;;-0.27;100.00
31681;BME280;18281;51.364;9.566;2023-02-10T10:06:37;102103.75;;;-0.11;100.00
31681;BME280;18281;51.364;9.566;2023-02-10T10:11:53;102097.59;;;0.22;100.00
31681;BME280;18281;51.364;9.566;2023-02-10T10:17:10;102110.75;;;0.32;100.00
31681;BME280;18281;51.364;9.566;2023-02-10T10:22:36;102104.84;;;0.40;100.00
31681;BME280;18281;51.364;9.566;2023-02-10T10:25:20;102103.47;;;0.57;100.00
31681;BME280;18281;51.364;9.566;2023-02-10T10:30:36;102093.53;;;0.77;100.00
31681;BME280;18281;51.364;9.566;2023-02-10T10:33:20;102099.91;;;0.95;100.00
31681;BME280;18281;51.364;9.566;2023-02-10T10:35:46;102093.81;;;0.93;100.00
31681;BME280;18281;51.364;9.566;2023-02-10T10:38:15;102092.22;;;0.98;100.00
31681;BME280;18281;51.364;9.566;2023-02-10T10:40:43;102085.88;;;0.83;100.00
31681;BME280;18281;51.364;9.566;2023-02-10T10:43:12;102078.78;;;0.73;100.00
31681;BME280;18281;51.364;9.566;2023-02-10T10:45:47;102078.75;;;0.70;100.00
31681;BME280;18281;51.364;9.566;2023-02-10T10:48:20;102078.09;;;0.80;100.00
31681;BME280;18281;51.364;9.566;2023-02-10T10:50:52;102081.81;;;0.96;100.00
31681;BME280;18281;51.364;9.566;2023-02-10T10:53:43;102077.78;;;1.11;100.00
31681;BME280;18281;51.364;9.566;2023-02-10T10:58:46;102079.13;;;1.39;100.00
31681;BME280;18281;51.364;9.566;2023-02-10T11:01:14;102079.94;;;1.36;100.00
31681;BME280;18281;51.364;9.566;2023-02-10T11:03:39;102075.44;;;1.25;100.00
31681;BME280;18281;51.364;9.566;2023-02-10T11:06:13;102069.59;;;1.38;100.00
31681;BME280;18281;51.364;9.566;2023-02-10T11:08:40;102074.97;;;1.50;100.00
31681;BME280;18281;51.364;9.566;2023-02-10T11:11:10;102072.56;;;1.63;100.00
31681;BME280;18281;51.364;9.566;2023-02-10T11:13:38;102070.22;;;1.78;100.00
31681;BME280;18281;51.364;9.566;2023-02-10T11:16:10;102071.06;;;1.79;100.00
31681;BME280;18281;51.364;9.566;2023-02-10T11:18:37;102071.19;;;1.86;100.00
31681;BME280;18281;51.364;9.566;2023-02-10T11:21:07;102068.41;;;1.73;100.00
31681;BME280;18281;51.364;9.566;2023-02-10T11:23:57;102057.53;;;2.00;100.00
31681;BME280;18281;51.364;9.566;2023-02-10T11:26:26;102056.56;;;1.90;100.00
31681;BME280;18281;51.364;9.566;2023-02-10T11:28:53;102043.78;;;2.04;100.00
31681;BME280;18281;51.364;9.566;2023-02-10T11:36:38;102038.00;;;2.27;100.00
31681;BME280;18281;51.364;9.566;2023-02-10T11:39:15;102034.63;;;2.34;100.00
31681;BME280;18281;51.364;9.566;2023-02-10T11:41:42;102032.25;;;2.54;100.00
31681;BME280;18281;51.364;9.566;2023-02-10T11:46:58;102025.63;;;2.84;100.00
31681;BME280;18281;51.364;9.566;2023-02-10T11:49:24;102018.72;;;2.87;100.00
31681;BME280;18281;51.364;9.566;2023-02-10T11:51:54;102022.31;;;2.99;100.00
31681;BME280;18281;51.364;9.566;2023-02-10T11:54:20;102011.94;;;2.99;100.00
31681;BME280;18281;51.364;9.566;2023-02-10T11:57:16;102014.53;;;3.00;100.00
31681;BME280;18281;51.364;9.566;2023-02-10T12:00:12;102005.00;;;2.98;100.00
31681;BME280;18281;51.364;9.566;2023-02-10T12:22:27;101999.78;;;2.95;100.00
31681;BME280;18281;51.364;9.566;2023-02-10T12:25:06;102004.97;;;2.95;100.00
31681;BME280;18281;51.364;9.566;2023-02-10T12:30:45;102000.66;;;2.95;100.00
31681;BME280;18281;51.364;9.566;2023-02-10T12:41:25;101990.41;;;3.15;100.00
31681;BME280;18281;51.364;9.566;2023-02-10T12:44:10;101989.56;;;3.12;100.00
31681;BME280;18281;51.364;9.566;2023-02-10T12:49:39;101981.78;;;3.15;100.00
31681;BME280;18281;51.364;9.566;2023-02-10T12:52:18;101979.25;;;3.29;100.00
31681;BME280;18281;51.364;9.566;2023-02-10T12:55:02;101976.53;;;3.10;100.00
31681;BME280;18281;51.364;9.566;2023-02-10T12:57:49;101976.25;;;4.19;100.00
31681;BME280;18281;51.364;9.566;2023-02-10T13:02:53;101979.81;;;5.06;100.00
31681;BME280;18281;51.364;9.566;2023-02-10T13:05:25;101979.56;;;3.80;100.00
31681;BME280;18281;51.364;9.566;2023-02-10T13:07:55;101975.22;;;3.72;100.00
31681;BME280;18281;51.364;9.566;2023-02-10T13:10:44;101986.47;;;3.73;100.00
31681;BME280;18281;51.364;9.566;2023-02-10T13:13:18;101979.53;;;3.70;100.00
31681;BME280;18281;51.364;9.566;2023-02-10T13:16:12;101982.91;;;3.49;99.08
31681;BME280;18281;51.364;9.566;2023-02-10T13:21:29;101980.16;;;3.32;100.00
31681;BME280;18281;51.364;9.566;2023-02-10T13:24:05;101979.31;;;3.32;99.32
31681;BME280;18281;51.364;9.566;2023-02-10T13:34:31;101973.03;;;3.03;100.00
31681;BME280;18281;51.364;9.566;2023-02-10T13:37:08;101965.38;;;3.23;100.00
31681;BME280;18281;51.364;9.566;2023-02-10T13:39:37;101967.06;;;3.14;100.00
31681;BME280;18281;51.364;9.566;2023-02-10T13:42:20;101963.56;;;3.09;100.00
31681;BME280;18281;51.364;9.566;2023-02-10T13:44:56;101966.88;;;2.91;99.75
31681;BME280;18281;51.364;9.566;2023-02-10T13:47:38;101970.31;;;2.86;100.00
31681;BME280;18281;51.364;9.566;2023-02-10T13:57:52;101950.25;;;2.64;100.00
31681;BME280;18281;51.364;9.566;2023-02-10T14:00:23;101958.91;;;2.67;100.00
31681;BME280;18281;51.364;9.566;2023-02-10T14:03:18;101952.00;;;2.66;100.00
31681;BME280;18281;51.364;9.566;2023-02-10T14:06:06;101952.75;;;2.58;100.00
31681;BME280;18281;51.364;9.566;2023-02-10T14:08:40;101949.25;;;2.51;100.00
31681;BME280;18281;51.364;9.566;2023-02-10T14:11:37;101940.63;;;2.53;100.00
31681;BME280;18281;51.364;9.566;2023-02-10T14:14:00;101923.31;;;2.49;100.00
31681;BME280;18281;51.364;9.566;2023-02-10T14:16:45;101931.91;;;2.42;100.00
31681;BME280;18281;51.364;9.566;2023-02-10T14:21:49;101920.47;;;2.23;100.00
31681;BME280;18281;51.364;9.566;2023-02-10T14:24:20;101924.91;;;2.36;100.00
31681;BME280;18281;51.364;9.566;2023-02-10T14:26:49;101917.09;;;2.29;100.00
31681;BME280;18281;51.364;9.566;2023-02-10T14:29:17;101918.84;;;2.33;100.00